Rondeau, Canada
Current Conditions -  °F | °C
As of 8:00 PM on Saturday 25 Oct 2014 (Local Time) from CYCK Reporting Station
Clear Clear  
Wind Chill: 57°   Ceiling: Unl
Heat Index: 57°   Visibility: 9mi
Dew Point: 37°   Wind: 15mph
Humidity: 48%   Direction: 280°W
Pressure: 29.73"   Gusts: NA
Location:  42.28°N, 81.87°W
Report Text: CYCK 260000Z AUTO 28013KT 9SM CLR 14/03 A2973 RMK SLP068 DENSITY ALT 800FT
Loading
Personal Weather Stations






























Interactive Weather Map
Tropical Storm Tracking
New forecast layout! Learn more

10-Day Weather Forecast

Advertisements
Track Severe Weather on mobile